Time,TemperatureF,DewpointF,PressureIn,WindDirection,WindDirectionDegrees,WindSpeedMPH,WindSpeedGustMPH,Humidity,HourlyPrecipIn,Conditions,Clouds,dailyrainin,SolarRadiationWatts/m^2,SoftwareType,DateUTC
2013-04-12 00:08:00,52.5,19.4,29.42,NNE,22,0.0,0.0,8,0.00,,,-99.99,0.0,Linux-Irox,2013-04-12 07:08:00,
2013-04-12 00:18:00,52.0,18.9,29.43,NNE,22,0.0,0.0,8,0.00,,,-99.99,0.0,Linux-Irox,2013-04-12 07:18:00,
2013-04-12 00:28:00,51.6,18.9,29.43,NNE,22,0.0,0.0,9,0.00,,,-99.99,0.0,Linux-Irox,2013-04-12 07:28:00,
2013-04-12 00:38:00,51.3,18.5,29.41,WNW,292,0.0,0.0,9,0.00,,,-99.99,0.0,Linux-Irox,2013-04-12 07:38:00,
2013-04-12 00:48:00,51.8,18.7,29.41,NNE,22,0.0,0.0,8,0.00,,,-99.99,0.0,Linux-Irox,2013-04-12 07:48:00,
2013-04-12 00:58:00,51.4,18.7,29.41,North,0,0.0,0.0,9,0.00,,,-99.99,0.0,Linux-Irox,2013-04-12 07:58:00,
2013-04-12 01:08:00,50.9,18.9,29.41,NE,45,0.0,0.0,11,0.00,,,-99.99,0.0,Linux-Irox,2013-04-12 08:08:00,
2013-04-12 01:18:00,50.7,18.7,29.43,NNE,22,0.0,0.0,11,0.00,,,-99.99,0.0,Linux-Irox,2013-04-12 08:18:00,
2013-04-12 01:28:00,50.4,19.0,29.43,NNW,337,0.0,0.0,13,0.00,,,-99.99,0.0,Linux-Irox,2013-04-12 08:28:00,
2013-04-12 01:38:00,50.4,19.0,29.43,ESE,112,0.0,0.0,13,0.00,,,-99.99,0.0,Linux-Irox,2013-04-12 08:38:00,
2013-04-12 01:48:00,50.0,18.7,29.43,NW,315,0.0,0.0,13,0.00,,,-99.99,0.0,Linux-Irox,2013-04-12 08:48:00,
2013-04-12 01:58:00,50.0,18.7,29.43,NE,45,0.0,0.0,13,0.00,,,-99.99,0.0,Linux-Irox,2013-04-12 08:58:00,
2013-04-12 02:08:00,50.7,19.4,29.43,NNE,22,0.0,0.0,13,0.00,,,-99.99,0.0,Linux-Irox,2013-04-12 09:08:00,
2013-04-12 02:18:00,50.4,19.0,29.43,NE,45,0.0,0.0,13,0.00,,,-99.99,0.0,Linux-Irox,2013-04-12 09:18:00,
2013-04-12 02:28:00,50.2,18.1,29.43,ENE,67,0.0,0.0,11,0.00,,,-99.99,0.0,Linux-Irox,2013-04-12 09:28:00,
2013-04-12 02:38:00,51.8,19.4,29.42,NE,45,0.0,0.0,10,0.00,,,-99.99,0.0,Linux-Irox,2013-04-12 09:38:00,
2013-04-12 02:48:00,51.6,19.6,29.42,ENE,67,0.0,0.0,11,0.00,,,-99.99,0.0,Linux-Irox,2013-04-12 09:48:00,
2013-04-12 02:58:00,51.6,19.6,29.42,ENE,67,0.0,0.0,11,0.00,,,-99.99,0.0,Linux-Irox,2013-04-12 09:58:00,
2013-04-12 03:08:00,50.7,18.0,29.42,West,270,0.0,0.0,9,0.00,,,-99.99,0.0,Linux-Irox,2013-04-12 10:08:00,
2013-04-12 03:18:00,50.5,17.8,29.41,NW,315,0.0,0.0,9,0.00,,,-99.99,0.0,Linux-Irox,2013-04-12 10:18:00,
2013-04-12 03:28:00,50.7,18.0,29.41,North,0,0.0,0.0,9,0.00,,,-99.99,0.0,Linux-Irox,2013-04-12 10:28:00,
2013-04-12 03:38:00,51.1,18.3,29.41,NNW,337,0.0,0.0,9,0.00,,,-99.99,0.0,Linux-Irox,2013-04-12 10:38:00,
2013-04-12 03:48:00,51.8,18.7,29.41,NNE,22,0.0,0.0,8,0.00,,,-99.99,0.0,Linux-Irox,2013-04-12 10:48:00,
2013-04-12 03:58:00,52.2,19.0,29.41,North,0,0.0,0.0,8,0.00,,,-99.99,0.0,Linux-Irox,2013-04-12 10:58:00,
2013-04-12 04:08:00,50.9,18.1,29.41,NNW,337,0.0,0.0,9,0.00,,,-99.99,0.0,Linux-Irox,2013-04-12 11:08:00,
2013-04-12 04:18:00,50.5,17.8,29.41,NNE,22,0.0,0.0,9,0.00,,,-99.99,0.0,Linux-Irox,2013-04-12 11:18:00,
2013-04-12 04:28:00,50.2,17.4,29.41,NW,315,0.0,0.0,9,0.00,,,-99.99,0.0,Linux-Irox,2013-04-12 11:28:00,
2013-04-12 04:38:00,50.4,17.6,29.42,North,0,0.0,0.0,9,0.00,,,-99.99,0.0,Linux-Irox,2013-04-12 11:38:00,
2013-04-12 04:48:00,49.8,17.4,29.42,NE,45,0.0,0.0,10,0.00,,,-99.99,0.0,Linux-Irox,2013-04-12 11:48:00,
2013-04-12 04:58:00,49.8,17.4,29.42,NE,45,0.0,0.0,10,0.00,,,-99.99,0.0,Linux-Irox,2013-04-12 11:58:00,
2013-04-12 05:08:00,50.0,17.2,29.42,East,90,0.0,0.0,9,0.00,,,-99.99,0.0,Linux-Irox,2013-04-12 12:08:00,
2013-04-12 05:18:00,49.6,17.2,29.43,ENE,67,0.0,0.0,10,0.00,,,-99.99,0.0,Linux-Irox,2013-04-12 12:18:00,
2013-04-12 05:28:00,49.3,16.9,29.43,North,0,0.0,0.0,10,0.00,,,-99.99,0.0,Linux-Irox,2013-04-12 12:28:00,
2013-04-12 05:38:00,48.4,16.0,29.42,ENE,67,0.0,0.0,10,0.00,,,-99.99,0.0,Linux-Irox,2013-04-12 12:38:00,
2013-04-12 05:48:00,48.2,15.8,29.42,ENE,67,0.0,0.0,10,0.00,,,-99.99,0.0,Linux-Irox,2013-04-12 12:48:00,
2013-04-12 05:58:00,47.7,15.3,29.43,NNE,22,0.0,0.0,10,0.00,,,-99.99,0.0,Linux-Irox,2013-04-12 12:58:00,
2013-04-12 06:01:00,47.7,15.3,29.43,NNE,22,0.0,0.0,10,0.00,,,-99.99,0.0,Linux-Irox,2013-04-12 13:01:00,
2013-04-12 06:08:00,47.7,15.3,29.43,NNE,22,0.0,0.0,10,0.00,,,-99.99,0.0,Linux-Irox,2013-04-12 13:08:00,
2013-04-12 06:16:00,47.3,14.9,29.43,NNE,22,0.0,0.0,10,0.00,,,-99.99,0.0,Linux-Irox,2013-04-12 13:16:00,
2013-04-12 06:18:00,47.1,14.7,29.43,North,0,0.0,0.0,10,0.00,,,-99.99,0.0,Linux-Irox,2013-04-12 13:18:00,
2013-04-12 06:28:00,46.6,14.2,29.43,ENE,67,0.0,0.0,10,0.00,,,-99.99,0.0,Linux-Irox,2013-04-12 13:28:00,
2013-04-12 06:31:00,46.6,14.2,29.43,NNW,337,0.0,0.0,10,0.00,,,-99.99,0.0,Linux-Irox,2013-04-12 13:31:00,
2013-04-12 06:38:00,46.6,14.2,29.44,North,0,0.0,0.0,10,0.00,,,-99.99,0.0,Linux-Irox,2013-04-12 13:38:00,
2013-04-12 06:47:00,46.6,15.3,29.44,North,0,0.0,0.0,13,0.00,,,-99.99,0.0,Linux-Irox,2013-04-12 13:47:00,
2013-04-12 06:48:00,46.8,15.4,29.44,NNE,22,0.0,0.0,13,0.00,,,-99.99,0.0,Linux-Irox,2013-04-12 13:48:00,
2013-04-12 06:58:00,47.1,15.8,29.45,ESE,112,0.0,0.0,13,0.00,,,-99.99,0.0,Linux-Irox,2013-04-12 13:58:00,
2013-04-12 07:01:00,47.1,15.8,29.45,NNE,22,0.0,0.0,13,0.00,,,-99.99,0.0,Linux-Irox,2013-04-12 14:01:00,
2013-04-12 07:08:00,47.1,15.8,29.45,NNE,22,0.0,0.0,13,0.00,,,-99.99,0.0,Linux-Irox,2013-04-12 14:08:00,
2013-04-12 07:16:00,47.3,16.0,29.45,NNW,337,0.0,0.0,13,0.00,,,-99.99,0.0,Linux-Irox,2013-04-12 14:16:00,
2013-04-12 07:18:00,47.3,16.0,29.47,NNW,337,0.0,0.0,13,0.00,,,-99.99,0.0,Linux-Irox,2013-04-12 14:18:00,
2013-04-12 07:28:00,49.1,17.4,29.47,NNW,337,0.0,0.0,12,0.00,,,-99.99,0.0,Linux-Irox,2013-04-12 14:28:00,
2013-04-12 07:31:00,50.4,18.3,29.47,ENE,67,0.0,0.0,11,0.00,,,-99.99,0.0,Linux-Irox,2013-04-12 14:31:00,
2013-04-12 07:38:00,55.4,23.7,29.47,West,270,0.0,0.0,12,0.00,,,-99.99,0.0,Linux-Irox,2013-04-12 14:38:00,
2013-04-12 07:46:00,57.2,24.8,29.47,NNW,337,0.0,0.0,10,0.00,,,-99.99,0.0,Linux-Irox,2013-04-12 14:46:00,
2013-04-12 07:48:00,57.6,25.2,29.47,East,90,0.0,0.0,10,0.00,,,-99.99,0.0,Linux-Irox,2013-04-12 14:48:00,
2013-04-12 07:58:00,59.4,25.2,29.47,East,90,0.0,0.0,5,0.00,,,-99.99,0.0,Linux-Irox,2013-04-12 14:58:00,
2013-04-12 08:01:00,60.3,26.1,29.47,NNE,22,0.0,0.0,5,0.00,,,-99.99,0.0,Linux-Irox,2013-04-12 15:01:00,
2013-04-12 08:08:00,61.0,26.8,29.47,North,-999,-999.0,-999.0,5,0.00,,,-99.99,0.0,Linux-Irox,2013-04-12 15:08:00,
2013-04-12 08:16:00,64.4,30.2,29.47,ENE,67,0.0,0.0,5,0.00,,,-99.99,0.0,Linux-Irox,2013-04-12 15:16:00,
2013-04-12 08:18:00,64.4,30.2,29.46,North,-999,-999.0,-999.0,5,0.00,,,-99.99,0.0,Linux-Irox,2013-04-12 15:18:00,
2013-04-12 08:28:00,64.9,30.7,29.46,North,-999,-999.0,-999.0,5,0.00,,,-99.99,0.0,Linux-Irox,2013-04-12 15:28:00,
2013-04-12 08:31:00,66.4,32.2,29.46,ENE,67,0.0,0.0,5,0.00,,,-99.99,0.0,Linux-Irox,2013-04-12 15:31:00,
2013-04-12 08:38:00,69.3,35.1,29.46,North,-999,-999.0,-999.0,5,0.00,,,-99.99,0.0,Linux-Irox,2013-04-12 15:38:00,
2013-04-12 08:46:00,69.8,35.6,29.46,ENE,67,0.0,0.0,5,0.00,,,-99.99,0.0,Linux-Irox,2013-04-12 15:46:00,
2013-04-12 09:01:00,68.2,34.0,29.46,ENE,67,0.0,0.0,5,0.00,,,-99.99,0.0,Linux-Irox,2013-04-12 16:01:00,
2013-04-12 09:08:00,69.1,34.9,29.46,North,-999,-999.0,-999.0,5,0.00,,,-99.99,0.0,Linux-Irox,2013-04-12 16:08:00,
2013-04-12 09:16:00,70.5,36.3,29.46,ENE,67,0.0,0.0,5,0.00,,,-99.99,0.0,Linux-Irox,2013-04-12 16:16:00,
2013-04-12 09:18:00,70.2,36.0,29.46,North,-999,-999.0,-999.0,5,0.00,,,-99.99,0.0,Linux-Irox,2013-04-12 16:18:00,
2013-04-12 09:28:00,71.8,37.6,29.46,North,-999,-999.0,-999.0,5,0.00,,,-99.99,0.0,Linux-Irox,2013-04-12 16:28:00,
2013-04-12 09:31:00,71.8,37.6,29.46,ENE,67,0.0,0.0,5,0.00,,,-99.99,0.0,Linux-Irox,2013-04-12 16:31:00,
2013-04-12 09:46:00,70.9,36.7,29.46,ENE,67,0.0,0.0,5,0.00,,,-99.99,0.0,Linux-Irox,2013-04-12 16:46:00,
2013-04-12 09:48:00,71.1,36.9,29.46,North,-999,-999.0,-999.0,5,0.00,,,-99.99,0.0,Linux-Irox,2013-04-12 16:48:00,
2013-04-12 09:58:00,72.7,38.5,29.46,North,-999,-999.0,-999.0,5,0.00,,,-99.99,0.0,Linux-Irox,2013-04-12 16:58:00,
2013-04-12 10:01:00,72.3,38.1,29.46,ENE,67,0.0,0.0,5,0.00,,,-99.99,0.0,Linux-Irox,2013-04-12 17:01:00,
2013-04-12 10:08:00,72.3,38.1,29.46,North,-999,-999.0,-999.0,5,0.00,,,-99.99,0.0,Linux-Irox,2013-04-12 17:08:00,
2013-04-12 10:16:00,73.6,39.4,29.46,ENE,67,0.0,0.0,5,0.00,,,-99.99,0.0,Linux-Irox,2013-04-12 17:16:00,
2013-04-12 10:18:00,73.4,39.2,29.45,North,-999,-999.0,-999.0,5,0.00,,,-99.99,0.0,Linux-Irox,2013-04-12 17:18:00,
2013-04-12 10:28:00,74.1,39.9,29.45,North,-999,-999.0,-999.0,5,0.00,,,-99.99,0.0,Linux-Irox,2013-04-12 17:28:00,
2013-04-12 10:31:00,73.8,39.6,29.45,ENE,67,0.0,0.0,5,0.00,,,-99.99,0.0,Linux-Irox,2013-04-12 17:31:00,
2013-04-12 10:38:00,73.8,39.6,29.46,North,-999,-999.0,-999.0,5,0.00,,,-99.99,0.0,Linux-Irox,2013-04-12 17:38:00,
2013-04-12 10:46:00,73.4,39.2,29.46,ENE,67,0.0,0.0,5,0.00,,,-99.99,0.0,Linux-Irox,2013-04-12 17:46:00,
2013-04-12 10:48:00,73.6,39.4,29.46,North,-999,-999.0,-999.0,5,0.00,,,-99.99,0.0,Linux-Irox,2013-04-12 17:48:00,
2013-04-12 10:58:00,73.6,39.4,29.46,North,-999,-999.0,-999.0,5,0.00,,,-99.99,0.0,Linux-Irox,2013-04-12 17:58:00,
2013-04-12 11:01:00,73.6,39.4,29.46,ENE,67,0.0,0.0,5,0.00,,,-99.99,0.0,Linux-Irox,2013-04-12 18:01:00,
2013-04-12 11:08:00,73.9,39.7,29.46,North,-999,-999.0,-999.0,5,0.00,,,-99.99,0.0,Linux-Irox,2013-04-12 18:08:00,
2013-04-12 11:16:00,73.6,39.4,29.46,ENE,67,0.0,0.0,5,0.00,,,-99.99,0.0,Linux-Irox,2013-04-12 18:16:00,
2013-04-12 11:18:00,73.6,39.4,29.46,North,-999,-999.0,-999.0,5,0.00,,,-99.99,0.0,Linux-Irox,2013-04-12 18:18:00,
2013-04-12 11:28:00,73.8,39.6,29.46,North,-999,-999.0,-999.0,5,0.00,,,-99.99,0.0,Linux-Irox,2013-04-12 18:28:00,
2013-04-12 11:38:00,73.8,39.6,29.46,North,-999,-999.0,-999.0,5,0.00,,,-99.99,0.0,Linux-Irox,2013-04-12 18:38:00,
2013-04-12 11:48:00,74.5,40.3,29.46,North,-999,-999.0,-999.0,5,0.00,,,-99.99,0.0,Linux-Irox,2013-04-12 18:48:00,
2013-04-12 11:58:00,74.1,39.9,29.45,North,-999,-999.0,-999.0,5,0.00,,,-99.99,0.0,Linux-Irox,2013-04-12 18:58:00,
2013-04-12 12:08:00,73.9,39.7,29.45,North,-999,-999.0,-999.0,5,0.00,,,-99.99,0.0,Linux-Irox,2013-04-12 19:08:00,
2013-04-12 12:18:00,73.6,39.4,29.45,North,-999,-999.0,-999.0,5,0.00,,,-99.99,0.0,Linux-Irox,2013-04-12 19:18:00,
2013-04-12 12:28:00,73.9,39.7,29.45,North,-999,-999.0,-999.0,5,0.00,,,-99.99,0.0,Linux-Irox,2013-04-12 19:28:00,
2013-04-12 12:31:00,73.9,39.7,29.45,North,-999,-999.0,-999.0,5,0.00,,,-99.99,0.0,Linux-Irox,2013-04-12 19:31:00,
2013-04-12 12:38:00,74.8,40.6,29.44,North,-999,-999.0,-999.0,5,0.00,,,-99.99,0.0,Linux-Irox,2013-04-12 19:38:00,
2013-04-12 12:46:00,74.1,39.9,29.44,North,-999,-999.0,-999.0,5,0.00,,,-99.99,0.0,Linux-Irox,2013-04-12 19:46:00,
2013-04-12 12:48:00,73.9,39.7,29.44,North,-999,-999.0,-999.0,5,0.00,,,-99.99,0.0,Linux-Irox,2013-04-12 19:48:00,
2013-04-12 12:58:00,73.9,39.7,29.43,North,-999,-999.0,-999.0,5,0.00,,,-99.99,0.0,Linux-Irox,2013-04-12 19:58:00,
2013-04-12 13:01:00,73.6,39.4,29.43,North,-999,-999.0,-999.0,5,0.00,,,-99.99,0.0,Linux-Irox,2013-04-12 20:01:00,
2013-04-12 13:08:00,73.9,39.7,29.43,North,-999,-999.0,-999.0,5,0.00,,,-99.99,0.0,Linux-Irox,2013-04-12 20:08:00,
2013-04-12 13:16:00,74.1,39.9,29.43,North,-999,-999.0,-999.0,5,0.00,,,-99.99,0.0,Linux-Irox,2013-04-12 20:16:00,
2013-04-12 13:18:00,74.3,40.1,29.44,North,-999,-999.0,-999.0,5,0.00,,,-99.99,0.0,Linux-Irox,2013-04-12 20:18:00,
2013-04-12 13:28:00,73.8,39.6,29.44,North,-999,-999.0,-999.0,5,0.00,,,-99.99,0.0,Linux-Irox,2013-04-12 20:28:00,
2013-04-12 13:31:00,73.2,39.0,29.44,North,-999,-999.0,-999.0,5,0.00,,,-99.99,0.0,Linux-Irox,2013-04-12 20:31:00,
2013-04-12 13:38:00,74.1,39.9,29.43,North,-999,-999.0,-999.0,5,0.00,,,-99.99,0.0,Linux-Irox,2013-04-12 20:38:00,
2013-04-12 13:46:00,73.8,39.6,29.43,North,-999,-999.0,-999.0,5,0.00,,,-99.99,0.0,Linux-Irox,2013-04-12 20:46:00,
2013-04-12 13:48:00,73.6,39.4,29.43,North,-999,-999.0,-999.0,5,0.00,,,-99.99,0.0,Linux-Irox,2013-04-12 20:48:00,
2013-04-12 13:58:00,73.8,39.6,29.43,North,-999,-999.0,-999.0,5,0.00,,,-99.99,0.0,Linux-Irox,2013-04-12 20:58:00,
2013-04-12 14:01:00,73.8,39.6,29.43,North,-999,-999.0,-999.0,5,0.00,,,-99.99,0.0,Linux-Irox,2013-04-12 21:01:00,
2013-04-12 14:08:00,74.3,40.1,29.43,North,-999,-999.0,-999.0,5,0.00,,,-99.99,0.0,Linux-Irox,2013-04-12 21:08:00,
2013-04-12 14:17:00,74.5,40.3,29.43,North,-999,-999.0,-999.0,5,0.00,,,-99.99,0.0,Linux-Irox,2013-04-12 21:17:00,
2013-04-12 14:28:00,74.7,40.5,29.43,North,-999,-999.0,-999.0,5,0.00,,,-99.99,0.0,Linux-Irox,2013-04-12 21:28:00,
2013-04-12 14:31:00,74.5,40.3,29.43,North,-999,-999.0,-999.0,5,0.00,,,-99.99,0.0,Linux-Irox,2013-04-12 21:31:00,
2013-04-12 14:38:00,74.5,40.3,29.43,North,-999,-999.0,-999.0,5,0.00,,,-99.99,0.0,Linux-Irox,2013-04-12 21:38:00,
2013-04-12 14:46:00,73.4,39.2,29.43,North,-999,-999.0,-999.0,5,0.00,,,-99.99,0.0,Linux-Irox,2013-04-12 21:46:00,
2013-04-12 14:48:00,73.4,39.2,29.43,North,-999,-999.0,-999.0,5,0.00,,,-99.99,0.0,Linux-Irox,2013-04-12 21:48:00,
2013-04-12 14:58:00,74.3,40.1,29.42,North,-999,-999.0,-999.0,5,0.00,,,-99.99,0.0,Linux-Irox,2013-04-12 21:58:00,
2013-04-12 15:01:00,74.3,40.1,29.42,North,-999,-999.0,-999.0,5,0.00,,,-99.99,0.0,Linux-Irox,2013-04-12 22:01:00,
2013-04-12 15:08:00,74.5,40.3,29.42,North,-999,-999.0,-999.0,5,0.00,,,-99.99,0.0,Linux-Irox,2013-04-12 22:08:00,
2013-04-12 15:16:00,74.5,40.3,29.42,North,-999,-999.0,-999.0,5,0.00,,,-99.99,0.0,Linux-Irox,2013-04-12 22:16:00,
2013-04-12 15:18:00,74.7,40.5,29.42,North,-999,-999.0,-999.0,5,0.00,,,-99.99,0.0,Linux-Irox,2013-04-12 22:18:00,
2013-04-12 15:28:00,73.4,39.2,29.42,North,-999,-999.0,-999.0,5,0.00,,,-99.99,0.0,Linux-Irox,2013-04-12 22:28:00,
2013-04-12 15:31:00,73.0,38.8,29.42,North,-999,-999.0,-999.0,5,0.00,,,-99.99,0.0,Linux-Irox,2013-04-12 22:31:00,
2013-04-12 15:38:00,73.8,39.6,29.40,North,-999,-999.0,-999.0,5,0.00,,,-99.99,0.0,Linux-Irox,2013-04-12 22:38:00,
2013-04-12 15:46:00,73.4,39.2,29.40,North,-999,-999.0,-999.0,5,0.00,,,-99.99,0.0,Linux-Irox,2013-04-12 22:46:00,
2013-04-12 15:48:00,73.2,39.0,29.40,North,-999,-999.0,-999.0,5,0.00,,,-99.99,0.0,Linux-Irox,2013-04-12 22:48:00,
2013-04-12 16:01:00,72.7,38.5,29.40,North,-999,-999.0,-999.0,5,0.00,,,-99.99,0.0,Linux-Irox,2013-04-12 23:01:00,
2013-04-12 16:16:00,73.0,38.8,29.40,North,-999,-999.0,-999.0,5,0.00,,,-99.99,0.0,Linux-Irox,2013-04-12 23:16:00,
2013-04-12 16:28:00,72.5,38.3,29.41,North,-999,-999.0,-999.0,5,0.00,,,-99.99,0.0,Linux-Irox,2013-04-12 23:28:00,
2013-04-12 16:31:00,72.5,38.3,29.41,North,-999,-999.0,-999.0,5,0.00,,,-99.99,0.0,Linux-Irox,2013-04-12 23:31:00,
2013-04-12 16:38:00,72.3,38.1,29.40,North,-999,-999.0,-999.0,5,0.00,,,-99.99,0.0,Linux-Irox,2013-04-12 23:38:00,
2013-04-12 16:46:00,72.1,37.9,29.40,North,-999,-999.0,-999.0,5,0.00,,,-99.99,0.0,Linux-Irox,2013-04-12 23:46:00,
2013-04-12 16:58:00,72.3,38.1,29.41,North,-999,-999.0,-999.0,5,0.00,,,-99.99,0.0,Linux-Irox,2013-04-12 23:58:00,
2013-04-12 17:01:00,72.3,38.1,29.41,North,-999,-999.0,-999.0,5,0.00,,,-99.99,0.0,Linux-Irox,2013-04-13 00:01:00,
2013-04-12 17:08:00,72.0,37.8,29.41,North,-999,-999.0,-999.0,5,0.00,,,-99.99,0.0,Linux-Irox,2013-04-13 00:08:00,
2013-04-12 17:16:00,71.2,37.0,29.41,North,-999,-999.0,-999.0,5,0.00,,,-99.99,0.0,Linux-Irox,2013-04-13 00:16:00,
2013-04-12 17:28:00,70.7,36.5,29.41,North,-999,-999.0,-999.0,5,0.00,,,-99.99,0.0,Linux-Irox,2013-04-13 00:28:00,
2013-04-12 17:32:00,70.5,36.3,29.41,North,-999,-999.0,-999.0,5,0.00,,,-99.99,0.0,Linux-Irox,2013-04-13 00:32:00,
2013-04-12 17:38:00,70.3,36.1,29.41,North,-999,-999.0,-999.0,5,0.00,,,-99.99,0.0,Linux-Irox,2013-04-13 00:38:00,
2013-04-12 17:47:00,70.2,36.0,29.41,North,-999,-999.0,-999.0,5,0.00,,,-99.99,0.0,Linux-Irox,2013-04-13 00:47:00,
2013-04-12 17:48:00,70.2,36.0,29.41,North,-999,-999.0,-999.0,5,0.00,,,-99.99,0.0,Linux-Irox,2013-04-13 00:48:00,
2013-04-12 17:58:00,69.6,35.4,29.40,North,-999,-999.0,-999.0,5,0.00,,,-99.99,0.0,Linux-Irox,2013-04-13 00:58:00,
2013-04-12 18:01:00,69.6,35.4,29.40,North,-999,-999.0,-999.0,5,0.00,,,-99.99,0.0,Linux-Irox,2013-04-13 01:01:00,
2013-04-12 18:08:00,69.1,34.9,29.40,North,-999,-999.0,-999.0,5,0.00,,,-99.99,0.0,Linux-Irox,2013-04-13 01:08:00,
2013-04-12 18:16:00,68.7,34.5,29.40,North,-999,-999.0,-999.0,5,0.00,,,-99.99,0.0,Linux-Irox,2013-04-13 01:16:00,
2013-04-12 18:18:00,68.7,34.5,29.40,North,-999,-999.0,-999.0,5,0.00,,,-99.99,0.0,Linux-Irox,2013-04-13 01:18:00,
2013-04-12 18:28:00,68.0,33.8,29.40,North,-999,-999.0,-999.0,5,0.00,,,-99.99,0.0,Linux-Irox,2013-04-13 01:28:00,
2013-04-12 18:32:00,67.8,33.6,29.40,North,-999,-999.0,-999.0,5,0.00,,,-99.99,0.0,Linux-Irox,2013-04-13 01:32:00,
2013-04-12 18:38:00,66.9,32.7,29.40,North,-999,-999.0,-999.0,5,0.00,,,-99.99,0.0,Linux-Irox,2013-04-13 01:38:00,
2013-04-12 18:46:00,66.0,31.8,29.40,North,-999,-999.0,-999.0,5,0.00,,,-99.99,0.0,Linux-Irox,2013-04-13 01:46:00,
2013-04-12 18:48:00,65.8,31.6,29.40,North,-999,-999.0,-999.0,5,0.00,,,-99.99,0.0,Linux-Irox,2013-04-13 01:48:00,
2013-04-12 18:58:00,64.9,30.7,29.40,North,-999,-999.0,-999.0,5,0.00,,,-99.99,0.0,Linux-Irox,2013-04-13 01:58:00,
2013-04-12 19:01:00,64.6,30.4,29.40,North,-999,-999.0,-999.0,5,0.00,,,-99.99,0.0,Linux-Irox,2013-04-13 02:01:00,
2013-04-12 19:08:00,63.9,29.7,29.40,North,-999,-999.0,-999.0,5,0.00,,,-99.99,0.0,Linux-Irox,2013-04-13 02:08:00,
2013-04-12 19:16:00,63.1,28.9,29.40,North,-999,-999.0,-999.0,5,0.00,,,-99.99,0.0,Linux-Irox,2013-04-13 02:16:00,
2013-04-12 19:18:00,63.0,28.8,29.40,North,-999,-999.0,-999.0,5,0.00,,,-99.99,0.0,Linux-Irox,2013-04-13 02:18:00,
2013-04-12 19:31:00,61.9,27.7,29.40,North,-999,-999.0,-999.0,5,0.00,,,-99.99,0.0,Linux-Irox,2013-04-13 02:31:00,
2013-04-12 19:38:00,61.0,26.8,29.41,North,-999,-999.0,-999.0,5,0.00,,,-99.99,0.0,Linux-Irox,2013-04-13 02:38:00,
2013-04-12 19:46:00,60.4,26.2,29.41,North,-999,-999.0,-999.0,5,0.00,,,-99.99,0.0,Linux-Irox,2013-04-13 02:46:00,
2013-04-12 19:48:00,60.4,26.2,29.41,North,-999,-999.0,-999.0,5,0.00,,,-99.99,0.0,Linux-Irox,2013-04-13 02:48:00,
2013-04-12 19:58:00,59.9,25.7,29.42,North,-999,-999.0,-999.0,5,0.00,,,-99.99,0.0,Linux-Irox,2013-04-13 02:58:00,
2013-04-12 20:01:00,59.7,25.5,29.42,North,-999,-999.0,-999.0,5,0.00,,,-99.99,0.0,Linux-Irox,2013-04-13 03:01:00,
2013-04-12 20:08:00,59.2,25.0,29.42,North,-999,-999.0,-999.0,5,0.00,,,-99.99,0.0,Linux-Irox,2013-04-13 03:08:00,
2013-04-12 20:16:00,59.0,24.8,29.42,North,-999,-999.0,-999.0,5,0.00,,,-99.99,0.0,Linux-Irox,2013-04-13 03:16:00,
2013-04-12 20:28:00,58.8,24.6,29.41,North,-999,-999.0,-999.0,5,0.00,,,-99.99,0.0,Linux-Irox,2013-04-13 03:28:00,
2013-04-12 20:31:00,58.8,24.6,29.41,North,-999,-999.0,-999.0,5,0.00,,,-99.99,0.0,Linux-Irox,2013-04-13 03:31:00,
2013-04-12 20:38:00,58.5,24.3,29.41,North,-999,-999.0,-999.0,5,0.00,,,-99.99,0.0,Linux-Irox,2013-04-13 03:38:00,
2013-04-12 20:46:00,58.1,23.9,29.41,North,-999,-999.0,-999.0,5,0.00,,,-99.99,0.0,Linux-Irox,2013-04-13 03:46:00,
2013-04-12 20:48:00,58.1,23.9,29.41,North,-999,-999.0,-999.0,5,0.00,,,-99.99,0.0,Linux-Irox,2013-04-13 03:48:00,
2013-04-12 21:01:00,57.6,23.4,29.45,North,-999,-999.0,-999.0,5,0.00,,,-99.99,0.0,Linux-Irox,2013-04-13 04:01:00,
2013-04-12 21:16:00,57.2,23.0,29.45,North,-999,-999.0,-999.0,5,0.00,,,-99.99,0.0,Linux-Irox,2013-04-13 04:16:00,
2013-04-12 21:18:00,57.0,22.8,29.45,North,-999,-999.0,-999.0,5,0.00,,,-99.99,0.0,Linux-Irox,2013-04-13 04:18:00,
2013-04-12 21:28:00,56.3,22.1,29.45,North,-999,-999.0,-999.0,5,0.00,,,-99.99,0.0,Linux-Irox,2013-04-13 04:28:00,
2013-04-12 21:38:00,56.1,21.9,29.42,North,-999,-999.0,-999.0,5,0.00,,,-99.99,0.0,Linux-Irox,2013-04-13 04:38:00,
2013-04-12 21:48:00,56.8,22.6,29.42,North,-999,-999.0,-999.0,5,0.00,,,-99.99,0.0,Linux-Irox,2013-04-13 04:48:00,
2013-04-12 21:58:00,56.3,22.1,29.44,North,-999,-999.0,-999.0,5,0.00,,,-99.99,0.0,Linux-Irox,2013-04-13 04:58:00,
2013-04-12 22:08:00,55.4,21.2,29.44,North,-999,-999.0,-999.0,5,0.00,,,-99.99,0.0,Linux-Irox,2013-04-13 05:08:00,
2013-04-12 22:18:00,55.6,21.4,29.45,North,-999,-999.0,-999.0,5,0.00,,,-99.99,0.0,Linux-Irox,2013-04-13 05:18:00,
2013-04-12 22:28:00,55.4,21.2,29.45,North,-999,-999.0,-999.0,5,0.00,,,-99.99,0.0,Linux-Irox,2013-04-13 05:28:00,
2013-04-12 22:38:00,54.9,20.7,29.45,North,-999,-999.0,-999.0,5,0.00,,,-99.99,0.0,Linux-Irox,2013-04-13 05:38:00,
2013-04-12 22:58:00,54.5,20.7,29.46,North,-999,-999.0,-999.0,6,0.00,,,-99.99,0.0,Linux-Irox,2013-04-13 05:58:00,
2013-04-12 23:08:00,54.1,20.3,29.46,North,-999,-999.0,-999.0,6,0.00,,,-99.99,0.0,Linux-Irox,2013-04-13 06:08:00,
2013-04-12 23:18:00,53.8,19.9,29.44,North,-999,-999.0,-999.0,6,0.00,,,-99.99,0.0,Linux-Irox,2013-04-13 06:18:00,
2013-04-12 23:28:00,53.8,19.9,29.44,North,-999,-999.0,-999.0,6,0.00,,,-99.99,0.0,Linux-Irox,2013-04-13 06:28:00,
2013-04-12 23:38:00,53.2,20.1,29.44,North,-999,-999.0,-999.0,8,0.00,,,-99.99,0.0,Linux-Irox,2013-04-13 06:38:00,
2013-04-12 23:48:00,53.2,20.1,29.44,North,-999,-999.0,-999.0,8,0.00,,,-99.99,0.0,Linux-Irox,2013-04-13 06:48:00,
2013-04-12 23:58:00,53.6,19.8,29.44,North,-999,-999.0,-999.0,6,0.00,,,-99.99,0.0,Linux-Irox,2013-04-13 06:58:00,